Flight Track Log - Related Links

Times and Time Zones

All times are in EDT time to prevent confusion due to time zone crossing. See the SWA655 flight status page for this flight to view local times or setup timezone preferences in your user account.


Time Position Orientation Groundspeed Altitude Reporting Facility
EDT Latitude Longitude Course Direction KTS MPH feet Rate Location/Type
Wed 02:23:47 PM 33.7167 -117.8500 270° West 164 189 2,600  Level Southern California TRACON
Wed 02:24:47 PM 33.7500 -117.8000 51° Northeast 227 261 6,900 3,267 Climbing Southern California TRACON
Wed 02:26:58 PM 33.6064 -117.8433 194° South 310 357 13,000 3,109 Climbing Los Angeles Center
Wed 02:28:00 PM 33.5339 -117.9297 225° Southwest 348 400 16,900 3,677 Climbing Los Angeles Center
Wed 02:29:00 PM 33.3667 -118.3684 270° West  Level FlightAware Approximate
Wed 02:29:02 PM 33.4633 -118.0183 226° Southwest 362 417 20,600  Level Los Angeles Center
Wed 02:30:04 PM 33.4542 -118.1447 265° West 343 395 23,000 1,887 Climbing Los Angeles Center
Wed 02:31:06 PM 33.5381 -118.2047 329° Northwest 355 409 24,500 1,597 Climbing Los Angeles Center
Wed 02:32:08 PM 33.6317 -118.2583 335° Northwest 368 423 26,300 1,920 Climbing Los Angeles Center
Wed 02:33:11 PM 33.7275 -118.3136 334° Northwest 384 442 28,500 1,920 Climbing Los Angeles Center
Wed 02:34:13 PM 33.8278 -118.3722 334° Northwest 396 456 30,300 2,129 Climbing Los Angeles Center
Wed 02:35:15 PM 33.9450 -118.4392 335° Northwest 411 473 32,900 1,632 Climbing Los Angeles Center
Wed 02:36:29 PM 34.0497 -118.4892 338° Northwest 408 470 34,000 838 Climbing Los Angeles Center
Wed 02:37:31 PM 34.1744 -118.5506 338° Northwest 403 464 34,800 1,355 Climbing Los Angeles Center
Wed 02:38:33 PM 34.2989 -118.6122 338° Northwest 403 464 36,800 1,728 Climbing Los Angeles Center
Wed 02:39:36 PM 34.4031 -118.6631 338° Northwest 405 466 38,400 1,392 Climbing Los Angeles Center
Wed 02:40:38 PM 34.5061 -118.7142 338° Northwest 402 463 39,700 774 Climbing Los Angeles Center
Wed 02:41:40 PM 34.6083 -118.7653 338° Northwest 398 458 40,000 145 Climbing Los Angeles Center
Wed 02:42:42 PM 34.7119 -118.8161 338° Northwest 401 461 40,000  Level Los Angeles Center
Wed 02:43:44 PM 34.8136 -118.8717 336° Northwest 400 460 40,000  Level Los Angeles Center
Wed 02:44:46 PM 34.9097 -118.9656 321° Northwest 380 437 40,000  Level Los Angeles Center
Wed 02:45:48 PM 34.9914 -119.0464 321° Northwest 379 436 40,000  Level Los Angeles Center
Wed 02:46:50 PM 35.0739 -119.1272 321° Northwest 380 437 40,000  Level Los Angeles Center
Wed 02:47:52 PM 35.1567 -119.2072 322° Northwest 380 437 40,000  Level Los Angeles Center
Wed 02:48:54 PM 35.2575 -119.3064 321° Northwest 386 444 40,000  Level Los Angeles Center
Wed 02:49:56 PM 35.3431 -119.3900 321° Northwest 392 451 40,000  Level Los Angeles Center
Wed 02:50:58 PM 35.4289 -119.4736 322° Northwest 394 453 40,000  Level Los Angeles Center
Wed 02:52:00 PM 35.5131 -119.5578 321° Northwest 396 456 40,000  Level Oakland Center
Wed 02:53:01 PM 35.5989 -119.6428 321° Northwest 400 460 40,000  Level Oakland Center
Wed 02:54:02 PM 35.6833 -119.7283 321° Northwest 398 458 40,000  Level Oakland Center
Wed 02:55:04 PM 35.7697 -119.8136 321° Northwest 400 460 40,000  Level Oakland Center
Wed 02:56:05 PM 35.8700 -119.9136 321° Northwest 392 451 40,000  Level Oakland Center
Wed 02:57:06 PM 35.9531 -119.9992 320° Northwest 392 451 40,000  Level Oakland Center
Wed 02:58:08 PM 36.0364 -120.0836 321° Northwest 392 451 40,000  Level Oakland Center
Wed 02:59:09 PM 36.1189 -120.1669 321° Northwest 386 444 40,000  Level Oakland Center
Wed 03:00:10 PM 36.1997 -120.2497 320° Northwest 381 438 40,000 -195 Level Oakland Center
Wed 03:01:12 PM 36.2814 -120.3328 321° Northwest 380 437 39,600 -1,366 Descending Oakland Center
Wed 03:02:13 PM 36.3625 -120.4144 321° Northwest 378 435 37,200 -2,459 Descending Oakland Center
Wed 03:03:14 PM 36.4419 -120.4978 320° Northwest 375 432 34,600 -2,508 Descending Oakland Center
Wed 03:04:15 PM 36.5353 -120.5911 321° Northwest 361 415 32,100 -2,195 Descending Oakland Center
Wed 03:05:17 PM 36.6069 -120.6694 319° Northwest 344 396 30,100 -1,951 Descending Oakland Center
Wed 03:06:18 PM 36.6758 -120.7394 321° Northwest 322 371 28,100 -1,869 Descending Oakland Center
Wed 03:07:19 PM 36.7406 -120.8081 320° Northwest 307 353 26,300 -1,756 Descending Oakland Center
Wed 03:08:21 PM 36.8022 -120.8764 318° Northwest 298 343 24,500 -1,756 Descending Oakland Center
Wed 03:09:22 PM 36.8667 -120.9511 317° Northwest 303 349 22,700 -1,721 Descending Oakland Center
Wed 03:10:23 PM 36.9278 -121.0194 318° Northwest 297 342 21,000 -1,672 Descending Oakland Center
Wed 03:11:24 PM 36.9875 -121.0878 318° Northwest 293 337 19,300 -1,610 Descending Oakland Center
Wed 03:12:26 PM 37.0492 -121.1572 318° Northwest 291 335 17,700 -1,707 Descending Oakland Center
Wed 03:13:27 PM 37.1042 -121.2233 316° Northwest 283 326 15,800 -1,770 Descending Oakland Center
Wed 03:14:28 PM 37.1608 -121.2867 318° Northwest 274 315 14,100 -1,756 Descending Oakland Center
Wed 03:15:30 PM 37.2261 -121.3661 316° Northwest 271 312 12,200 -1,756 Descending Oakland Center
Wed 03:16:31 PM 37.2817 -121.4281 318° Northwest 269 310 10,500 -1,230 Descending Oakland Center
Wed 03:17:32 PM 37.3364 -121.4928 317° Northwest 268 308 9,700 -829 Descending Oakland Center
Wed 03:18:34 PM 37.3875 -121.5522 317° Northwest 254 292 8,800 -911 Descending Oakland Center
Wed 03:18:51 PM 37.4000 -121.5667 317° Northwest 249 287 8,500 -795 Descending Northern Cal TRACON
Wed 03:19:57 PM 37.4667 -121.6333 322° Northwest 251 289 7,700 -650 Descending Northern Cal TRACON
Wed 03:20:51 PM 37.4833 -121.7167 284° West 258 297 7,200 -800 Descending Northern Cal TRACON
Wed 03:21:57 PM 37.5000 -121.8000 284° West 249 287 6,100 -800 Descending Northern Cal TRACON
Wed 03:22:51 PM 37.5167 -121.8833 284° West 226 260 5,600 -737 Descending Northern Cal TRACON
Wed 03:23:51 PM 37.5333 -121.9500 288° West 216 249 4,700 -905 Descending Northern Cal TRACON
Wed 03:24:57 PM 37.5667 -122.0167 302° West 201 231 3,700 -857 Descending Northern Cal TRACON
Wed 03:25:57 PM 37.6000 -122.0667 310° West 179 206 2,900 -841 Descending Northern Cal TRACON
Wed 03:26:44 PM 37.6261 -122.1025 313° West 187 215 2,200 -833 Descending Oakland Center
Wed 03:27:45 PM 37.6544 -122.1450 310° West 173 199 1,400 -738 Descending Oakland Center
Wed 03:28:46 PM 37.6772 -122.1783 311° West 146 168 700 9,073 Descending Oakland Center
Wed 03:29:48 PM 37.6989 -122.2100 311° West 128 147 20,000 9,415 Climbing Oakland Center
Wed 03:30:49 PM 37.7119 -122.2300 310° West 90 104 20,000  Level Oakland Center
Wed 03:32:00 PM 37.7167 -122.2167 270° West  Level FlightAware Approximate

Login

Don't have an account? Register now (free) for customized features, flight alerts, and more!